createdAt,value
2023-02-06T00:01:26.580Z,-2.70
2023-02-06T00:03:54.449Z,-2.80
2023-02-06T00:06:22.263Z,-2.80
2023-02-06T00:08:50.301Z,-2.80
2023-02-06T00:11:20.268Z,-2.80
2023-02-06T00:13:49.029Z,-2.80
2023-02-06T00:16:25.802Z,-2.80
2023-02-06T00:18:57.286Z,-2.80
2023-02-06T00:21:26.233Z,-2.90
2023-02-06T00:23:55.737Z,-2.90
2023-02-06T00:26:23.984Z,-3.00
2023-02-06T00:28:52.042Z,-3.00
2023-02-06T00:31:19.592Z,-3.00
2023-02-06T00:33:47.568Z,-3.10
2023-02-06T00:36:15.119Z,-3.10
2023-02-06T00:38:42.977Z,-3.10
2023-02-06T00:41:10.812Z,-3.10
2023-02-06T00:43:38.307Z,-3.10
2023-02-06T00:46:06.091Z,-3.20
2023-02-06T00:48:33.957Z,-3.20
2023-02-06T00:51:01.586Z,-3.30
2023-02-06T00:53:29.617Z,-3.30
2023-02-06T00:55:59.553Z,-3.30
2023-02-06T00:58:27.742Z,-3.40
2023-02-06T01:00:58.141Z,-3.50
2023-02-06T01:03:25.675Z,-3.50
2023-02-06T01:05:53.073Z,-3.50
2023-02-06T01:08:20.640Z,-3.60
2023-02-06T01:10:48.368Z,-3.60
2023-02-06T01:13:16.108Z,-3.60
2023-02-06T01:15:43.996Z,-3.60
2023-02-06T01:18:11.590Z,-3.70
2023-02-06T01:20:40.620Z,-3.70
2023-02-06T01:23:08.584Z,-3.70
2023-02-06T01:25:37.948Z,-3.70
2023-02-06T01:28:05.542Z,-3.80
2023-02-06T01:30:33.279Z,-3.80
2023-02-06T01:33:00.755Z,-3.80
2023-02-06T01:35:29.872Z,-3.90
2023-02-06T01:37:57.434Z,-3.90
2023-02-06T01:40:25.358Z,-3.90
2023-02-06T01:42:53.187Z,-4.00
2023-02-06T01:45:26.637Z,-4.00
2023-02-06T01:48:03.183Z,-4.00
2023-02-06T01:50:33.188Z,-4.10
2023-02-06T01:53:01.962Z,-4.10
2023-02-06T01:55:29.685Z,-4.20
2023-02-06T01:57:57.279Z,-4.20
2023-02-06T02:00:25.076Z,-4.20
2023-02-06T02:02:52.828Z,-4.20
2023-02-06T02:05:20.789Z,-4.30
2023-02-06T02:08:01.060Z,-4.30
2023-02-06T02:10:30.595Z,-4.20
2023-02-06T02:12:58.731Z,-4.30
2023-02-06T02:15:44.046Z,-4.40
2023-02-06T02:18:31.056Z,-4.40
2023-02-06T02:21:23.365Z,-4.40
2023-02-06T02:24:13.577Z,-4.40
2023-02-06T02:27:13.262Z,-4.50
2023-02-06T02:30:13.087Z,-4.50
2023-02-06T02:33:10.382Z,-4.60
2023-02-06T02:35:59.437Z,-4.60
2023-02-06T02:38:50.918Z,-4.60
2023-02-06T02:41:33.758Z,-4.70
2023-02-06T02:44:10.323Z,-4.70
2023-02-06T02:46:42.853Z,-4.70
2023-02-06T02:49:20.327Z,-4.70
2023-02-06T02:51:49.578Z,-4.80
2023-02-06T02:54:18.329Z,-4.80
2023-02-06T02:56:46.587Z,-4.90
2023-02-06T02:59:24.033Z,-4.90
2023-02-06T03:02:01.679Z,-4.90
2023-02-06T03:04:46.084Z,-4.90
2023-02-06T03:07:31.927Z,-5.00
2023-02-06T03:10:18.036Z,-5.00
2023-02-06T03:12:49.480Z,-5.00
2023-02-06T03:15:35.300Z,-5.10
2023-02-06T03:18:12.641Z,-5.10
2023-02-06T03:20:44.344Z,-5.10
2023-02-06T03:23:25.158Z,-5.10
2023-02-06T03:25:55.857Z,-5.20
2023-02-06T03:28:31.285Z,-5.20
2023-02-06T03:31:07.067Z,-5.20
2023-02-06T03:33:44.955Z,-5.20
2023-02-06T03:36:17.322Z,-5.20
2023-02-06T03:38:49.427Z,-5.30
2023-02-06T03:41:25.617Z,-5.30
2023-02-06T03:43:58.353Z,-5.30
2023-02-06T03:46:30.888Z,-5.20
2023-02-06T03:49:07.430Z,-5.30
2023-02-06T03:51:44.828Z,-5.30
2023-02-06T03:54:17.425Z,-5.20
2023-02-06T03:57:02.440Z,-5.20
2023-02-06T03:59:31.245Z,-5.30
2023-02-06T04:02:02.825Z,-5.30
2023-02-06T04:04:35.279Z,-5.30
2023-02-06T04:07:17.714Z,-5.30
2023-02-06T04:09:45.425Z,-5.30
2023-02-06T04:12:13.419Z,-5.30
2023-02-06T04:14:42.091Z,-5.30
2023-02-06T04:17:11.044Z,-5.30
2023-02-06T04:19:39.132Z,-5.30
2023-02-06T04:22:07.335Z,-5.40
2023-02-06T04:24:35.625Z,-5.50
2023-02-06T04:27:03.674Z,-5.50
2023-02-06T04:29:31.215Z,-5.50
2023-02-06T04:32:02.160Z,-5.60
2023-02-06T04:34:30.258Z,-5.60
2023-02-06T04:36:58.382Z,-5.60
2023-02-06T04:39:27.170Z,-5.60
2023-02-06T04:41:55.640Z,-5.70
2023-02-06T04:44:23.704Z,-5.70
2023-02-06T04:46:51.620Z,-5.70
2023-02-06T04:49:19.556Z,-5.80
2023-02-06T04:51:47.726Z,-5.80
2023-02-06T04:54:17.304Z,-5.80
2023-02-06T04:56:46.123Z,-5.80
2023-02-06T04:59:14.213Z,-5.90
2023-02-06T05:01:42.489Z,-5.90
2023-02-06T05:04:09.795Z,-5.90
2023-02-06T05:06:37.897Z,-5.90
2023-02-06T05:09:06.691Z,-6.00
2023-02-06T05:11:34.588Z,-6.00
2023-02-06T05:14:02.120Z,-6.00
2023-02-06T05:16:29.456Z,-6.00
2023-02-06T05:18:57.705Z,-6.00
2023-02-06T05:21:26.672Z,-6.10
2023-02-06T05:23:54.556Z,-6.10
2023-02-06T05:26:22.527Z,-6.10
2023-02-06T05:28:50.085Z,-6.20
2023-02-06T05:31:21.222Z,-6.20
2023-02-06T05:33:52.724Z,-6.20
2023-02-06T05:36:20.949Z,-6.20
2023-02-06T05:38:49.673Z,-6.20
2023-02-06T05:41:18.112Z,-6.20
2023-02-06T05:43:46.117Z,-6.30
2023-02-06T05:46:13.773Z,-6.30
2023-02-06T05:48:43.682Z,-6.30
2023-02-06T05:51:11.629Z,-6.30
2023-02-06T05:53:39.326Z,-6.30
2023-02-06T05:56:09.144Z,-6.30
2023-02-06T05:58:37.260Z,-6.30
2023-02-06T06:01:05.283Z,-6.30
2023-02-06T06:03:33.574Z,-6.30
2023-02-06T06:06:01.886Z,-6.30
2023-02-06T06:08:32.790Z,-6.40
2023-02-06T06:11:02.171Z,-6.40
2023-02-06T06:13:30.204Z,-6.40
2023-02-06T06:15:57.801Z,-6.40
2023-02-06T06:18:28.141Z,-6.40
2023-02-06T06:20:57.529Z,-6.40
2023-02-06T06:23:25.545Z,-6.40
2023-02-06T06:25:52.934Z,-6.40
2023-02-06T06:28:20.430Z,-6.40
2023-02-06T06:30:48.349Z,-6.40
2023-02-06T06:33:16.743Z,-6.40
2023-02-06T06:35:44.431Z,-6.40
2023-02-06T06:38:12.739Z,-6.40
2023-02-06T06:40:41.202Z,-6.50
2023-02-06T06:43:08.604Z,-6.50
2023-02-06T06:45:36.531Z,-6.50
2023-02-06T06:48:04.753Z,-6.40
2023-02-06T06:50:33.333Z,-6.50
2023-02-06T06:53:02.617Z,-6.50
2023-02-06T06:55:30.569Z,-6.50
2023-02-06T06:57:58.641Z,-6.40
2023-02-06T07:00:26.788Z,-6.40
2023-02-06T07:02:56.492Z,-6.40
2023-02-06T07:05:24.433Z,-6.30
2023-02-06T07:07:52.295Z,-6.30
2023-02-06T07:10:21.388Z,-6.20
2023-02-06T07:12:49.582Z,-6.20
2023-02-06T07:15:17.750Z,-6.10
2023-02-06T07:17:45.593Z,-6.00
2023-02-06T07:20:13.778Z,-5.90
2023-02-06T07:22:41.549Z,-5.90
2023-02-06T07:25:09.508Z,-5.80
2023-02-06T07:27:37.191Z,-5.70
2023-02-06T07:30:06.667Z,-5.70
2023-02-06T07:32:37.583Z,-5.60
2023-02-06T07:35:06.261Z,-5.60
2023-02-06T07:37:34.682Z,-5.50
2023-02-06T07:40:03.834Z,-5.40
2023-02-06T07:42:33.605Z,-5.30
2023-02-06T07:45:01.279Z,-5.20
2023-02-06T07:47:29.562Z,-5.10
2023-02-06T07:49:57.070Z,-5.00
2023-02-06T07:52:24.760Z,-4.90
2023-02-06T07:54:52.453Z,-4.90
2023-02-06T07:57:20.439Z,-4.70
2023-02-06T07:59:48.135Z,-4.70
2023-02-06T08:02:15.702Z,-4.60
2023-02-06T08:04:43.582Z,-4.40
2023-02-06T08:07:15.173Z,-4.30
2023-02-06T08:09:43.133Z,-4.20
2023-02-06T08:12:11.986Z,-4.10
2023-02-06T08:14:40.306Z,-3.90
2023-02-06T08:17:07.840Z,-3.80
2023-02-06T08:19:35.852Z,-3.60
2023-02-06T08:22:05.924Z,-3.60
2023-02-06T08:24:37.694Z,-3.40
2023-02-06T08:27:07.058Z,-3.30
2023-02-06T08:29:42.226Z,-3.10
2023-02-06T08:32:10.547Z,-3.00
2023-02-06T08:34:40.939Z,-2.90
2023-02-06T08:37:10.155Z,-2.70
2023-02-06T08:39:38.534Z,-2.60
2023-02-06T08:42:06.417Z,-2.40
2023-02-06T08:44:34.248Z,-2.40
2023-02-06T08:47:09.962Z,-2.30
2023-02-06T08:49:38.867Z,-2.10
2023-02-06T08:52:06.417Z,-2.00
2023-02-06T08:54:36.313Z,-1.90
2023-02-06T08:57:06.794Z,-1.80
2023-02-06T08:59:35.843Z,-1.60
2023-02-06T09:02:03.327Z,-1.60
2023-02-06T09:04:32.042Z,-1.50
2023-02-06T09:06:59.540Z,-1.40
2023-02-06T09:09:27.086Z,-1.40
2023-02-06T09:11:56.295Z,-1.40
2023-02-06T09:14:25.620Z,-1.30
2023-02-06T09:16:53.277Z,-1.20
2023-02-06T09:19:20.772Z,-1.10
2023-02-06T09:21:48.402Z,-1.00
2023-02-06T09:24:16.064Z,-0.90
2023-02-06T09:26:58.647Z,-0.80
2023-02-06T09:29:29.079Z,-0.70
2023-02-06T09:31:59.341Z,-0.70
2023-02-06T09:34:27.072Z,-0.60
2023-02-06T09:36:58.005Z,-0.50
2023-02-06T09:39:25.794Z,-0.40
2023-02-06T09:42:00.174Z,-0.30
2023-02-06T09:44:30.765Z,-0.10
2023-02-06T09:47:01.328Z,-0.10
2023-02-06T09:49:31.375Z,0.00
2023-02-06T09:52:05.920Z,0.30
2023-02-06T09:54:50.735Z,0.40
2023-02-06T09:57:24.270Z,0.60
2023-02-06T10:00:02.731Z,0.70
2023-02-06T10:02:30.397Z,0.80
2023-02-06T10:05:14.081Z,0.70
2023-02-06T10:07:52.558Z,0.70
2023-02-06T10:10:42.088Z,0.60
2023-02-06T10:13:28.648Z,0.60
2023-02-06T10:15:59.524Z,0.50
2023-02-06T10:18:33.276Z,0.50
2023-02-06T10:21:05.399Z,0.40
2023-02-06T10:23:47.692Z,0.50
2023-02-06T10:26:19.290Z,0.50
2023-02-06T10:28:56.334Z,0.60
2023-02-06T10:31:24.135Z,0.70
2023-02-06T10:34:10.232Z,0.80
2023-02-06T10:36:46.699Z,0.80
2023-02-06T10:39:20.812Z,0.90
2023-02-06T10:41:51.796Z,1.00
2023-02-06T10:44:39.681Z,1.20
2023-02-06T10:47:16.025Z,1.20
2023-02-06T10:49:48.980Z,1.20
2023-02-06T10:52:32.756Z,1.30
2023-02-06T10:55:03.284Z,1.40
2023-02-06T11:00:21.792Z,1.60
2023-02-06T11:03:06.524Z,1.80
2023-02-06T11:05:35.878Z,1.90
2023-02-06T11:08:03.740Z,2.20
2023-02-06T11:10:32.411Z,2.40
2023-02-06T11:13:01.512Z,2.60
2023-02-06T11:15:40.375Z,2.60
2023-02-06T11:18:11.250Z,2.70
2023-02-06T11:20:41.907Z,2.70
2023-02-06T11:23:23.377Z,2.70
2023-02-06T11:26:03.282Z,2.70
2023-02-06T11:28:31.118Z,2.70
2023-02-06T11:31:00.592Z,2.80
2023-02-06T11:33:28.188Z,2.70
2023-02-06T11:35:59.276Z,2.70
2023-02-06T11:38:29.367Z,2.80
2023-02-06T11:41:01.305Z,2.80
2023-02-06T11:43:40.979Z,2.90
2023-02-06T11:46:20.067Z,2.90
2023-02-06T11:48:49.298Z,3.00
2023-02-06T11:51:17.567Z,2.90
2023-02-06T11:53:58.636Z,2.90
2023-02-06T11:56:27.184Z,2.90
2023-02-06T11:59:02.799Z,2.80
2023-02-06T12:01:37.851Z,2.80
2023-02-06T12:04:05.804Z,2.80
2023-02-06T12:06:36.218Z,2.90
2023-02-06T12:09:09.235Z,2.80
2023-02-06T12:12:00.046Z,2.70
2023-02-06T12:14:38.114Z,2.60
2023-02-06T12:17:13.958Z,2.50
2023-02-06T12:19:45.478Z,2.40
2023-02-06T12:22:17.803Z,2.40
2023-02-06T12:24:47.444Z,2.30
2023-02-06T12:27:17.916Z,2.30
2023-02-06T12:29:50.968Z,2.00
2023-02-06T12:32:24.300Z,1.90
2023-02-06T12:34:53.700Z,1.80
2023-02-06T12:37:22.075Z,1.60
2023-02-06T12:39:51.617Z,1.50
2023-02-06T12:42:32.008Z,1.50
2023-02-06T12:45:10.904Z,1.40
2023-02-06T12:47:46.157Z,1.30
2023-02-06T12:50:19.783Z,1.30
2023-02-06T12:52:56.809Z,1.30
2023-02-06T12:55:37.222Z,1.40
2023-02-06T12:58:05.279Z,1.40
2023-02-06T13:00:53.004Z,1.50
2023-02-06T13:03:27.071Z,1.60
2023-02-06T13:06:03.509Z,1.70
2023-02-06T13:08:45.970Z,1.80
2023-02-06T13:11:25.122Z,1.80
2023-02-06T13:13:59.848Z,1.70
2023-02-06T13:16:37.951Z,1.70
2023-02-06T13:19:06.266Z,1.70
2023-02-06T13:21:35.161Z,1.80
2023-02-06T13:24:02.604Z,1.80
2023-02-06T13:26:46.176Z,1.70
2023-02-06T13:29:25.392Z,1.70
2023-02-06T13:32:22.563Z,1.80
2023-02-06T13:34:53.962Z,1.70
2023-02-06T13:37:21.545Z,1.80
2023-02-06T13:39:49.513Z,1.80
2023-02-06T13:42:39.778Z,1.90
2023-02-06T13:45:14.674Z,2.00
2023-02-06T13:47:42.026Z,2.00
2023-02-06T13:50:21.563Z,1.90
2023-02-06T13:53:06.824Z,2.00
2023-02-06T13:55:48.376Z,2.00
2023-02-06T13:58:18.622Z,2.10
2023-02-06T14:00:47.628Z,2.00
2023-02-06T14:03:31.837Z,2.00
2023-02-06T14:05:59.217Z,1.90
2023-02-06T14:08:45.507Z,1.80
2023-02-06T14:11:47.103Z,1.90
2023-02-06T14:14:43.850Z,1.90
2023-02-06T14:17:21.051Z,1.90
2023-02-06T14:20:00.835Z,1.90
2023-02-06T14:22:52.685Z,1.90
2023-02-06T14:25:39.084Z,2.00
2023-02-06T14:28:27.389Z,2.00
2023-02-06T14:31:15.254Z,2.00
2023-02-06T14:33:57.372Z,1.90
2023-02-06T14:36:51.190Z,1.80
2023-02-06T14:39:37.611Z,1.70
2023-02-06T14:42:06.825Z,1.70
2023-02-06T14:44:34.553Z,1.80
2023-02-06T14:47:02.178Z,1.70
2023-02-06T14:49:33.438Z,1.70
2023-02-06T14:52:01.858Z,1.70
2023-02-06T14:54:32.641Z,1.70
2023-02-06T14:57:04.882Z,1.60
2023-02-06T14:59:32.466Z,1.60
2023-02-06T15:02:11.454Z,1.60
2023-02-06T15:04:44.989Z,1.60
2023-02-06T15:07:19.928Z,1.60
2023-02-06T15:09:54.530Z,1.40
2023-02-06T15:12:24.921Z,1.40
2023-02-06T15:14:54.443Z,1.30
2023-02-06T15:17:22.890Z,1.30
2023-02-06T15:19:50.524Z,1.20
2023-02-06T15:22:23.554Z,1.20
2023-02-06T15:25:00.161Z,1.20
2023-02-06T15:27:29.893Z,1.20
2023-02-06T15:29:58.068Z,1.10
2023-02-06T15:32:37.906Z,1.10
2023-02-06T15:35:20.247Z,1.10
2023-02-06T15:37:47.819Z,1.10
2023-02-06T15:40:16.623Z,1.00
2023-02-06T15:42:47.499Z,1.00
2023-02-06T15:45:21.029Z,0.90
2023-02-06T15:47:49.920Z,0.90
2023-02-06T15:50:19.155Z,0.90
2023-02-06T15:52:47.472Z,0.80
2023-02-06T15:55:41.659Z,0.80
2023-02-06T15:58:13.886Z,0.80
2023-02-06T16:00:41.871Z,0.70
2023-02-06T16:03:16.753Z,0.70
2023-02-06T16:05:46.538Z,0.70
2023-02-06T16:08:40.031Z,0.60
2023-02-06T16:11:27.427Z,0.60
2023-02-06T16:13:56.448Z,0.50
2023-02-06T16:16:25.050Z,0.50
2023-02-06T16:18:53.374Z,0.50
2023-02-06T16:21:27.124Z,0.40
2023-02-06T16:24:03.153Z,0.40
2023-02-06T16:26:32.188Z,0.40
2023-02-06T16:29:08.742Z,0.30
2023-02-06T16:31:40.654Z,0.30
2023-02-06T16:34:27.201Z,0.30
2023-02-06T16:36:54.722Z,0.30
2023-02-06T16:39:23.599Z,0.30
2023-02-06T16:41:51.958Z,0.30
2023-02-06T16:44:20.169Z,0.20
2023-02-06T16:46:47.627Z,0.10
2023-02-06T16:49:16.438Z,0.10
2023-02-06T16:51:45.509Z,0.10
2023-02-06T16:54:19.981Z,0.00
2023-02-06T16:56:48.063Z,0.10
2023-02-06T16:59:15.420Z,0.00
2023-02-06T17:01:42.942Z,0.00
2023-02-06T17:04:11.930Z,0.00
2023-02-06T17:06:39.777Z,0.00
2023-02-06T17:09:11.324Z,0.00
2023-02-06T17:11:39.168Z,0.00
2023-02-06T17:14:06.627Z,0.00
2023-02-06T17:16:34.224Z,-0.10
2023-02-06T17:19:01.942Z,-0.10
2023-02-06T17:21:33.690Z,-0.10
2023-02-06T17:24:01.255Z,-0.20
2023-02-06T17:26:28.756Z,-0.20
2023-02-06T17:28:56.359Z,-0.20
2023-02-06T17:31:23.888Z,-0.20
2023-02-06T17:33:51.693Z,-0.20
2023-02-06T17:36:29.699Z,-0.30
2023-02-06T17:38:59.173Z,-0.30
2023-02-06T17:41:27.304Z,-0.30
2023-02-06T17:43:55.114Z,-0.40
2023-02-06T17:46:24.836Z,-0.50
2023-02-06T17:48:52.408Z,-0.60
2023-02-06T17:51:21.571Z,-0.60
2023-02-06T17:53:50.517Z,-0.60
2023-02-06T17:56:19.459Z,-0.70
2023-02-06T17:58:47.018Z,-0.70
2023-02-06T18:01:16.239Z,-0.80
2023-02-06T18:03:44.588Z,-0.90
2023-02-06T18:06:13.276Z,-1.00
2023-02-06T18:08:41.326Z,-1.10
2023-02-06T18:11:13.405Z,-1.10
2023-02-06T18:13:41.699Z,-1.20
2023-02-06T18:16:14.286Z,-1.30
2023-02-06T18:18:42.152Z,-1.30
2023-02-06T18:21:10.772Z,-1.40
2023-02-06T18:23:40.949Z,-1.40
2023-02-06T18:26:09.853Z,-1.40
2023-02-06T18:28:37.993Z,-1.50
2023-02-06T18:31:06.567Z,-1.50
2023-02-06T18:33:35.161Z,-1.60
2023-02-06T18:36:06.073Z,-1.60
2023-02-06T18:38:34.057Z,-1.60
2023-02-06T18:41:05.336Z,-1.70
2023-02-06T18:43:33.166Z,-1.70
2023-02-06T18:46:06.204Z,-1.70
2023-02-06T18:48:34.311Z,-1.80
2023-02-06T18:51:06.842Z,-1.80
2023-02-06T18:53:34.306Z,-1.90
2023-02-06T18:56:02.007Z,-1.90
2023-02-06T18:58:29.534Z,-2.00
2023-02-06T19:00:56.919Z,-2.00
2023-02-06T19:03:24.563Z,-2.00
2023-02-06T19:05:52.839Z,-2.10
2023-02-06T19:08:20.667Z,-2.10
2023-02-06T19:10:49.415Z,-2.20
2023-02-06T19:13:18.653Z,-2.30
2023-02-06T19:15:46.351Z,-2.30
2023-02-06T19:18:13.766Z,-2.40
2023-02-06T19:20:41.823Z,-2.40
2023-02-06T19:23:09.428Z,-2.40
2023-02-06T19:25:36.957Z,-2.50
2023-02-06T19:28:04.783Z,-2.60
2023-02-06T19:30:32.631Z,-2.60
2023-02-06T19:33:00.556Z,-2.70
2023-02-06T19:35:28.742Z,-2.70
2023-02-06T19:37:56.241Z,-2.80
2023-02-06T19:40:23.848Z,-2.80
2023-02-06T19:42:51.895Z,-2.90
2023-02-06T19:45:19.430Z,-2.90
2023-02-06T19:47:46.928Z,-3.00
2023-02-06T19:50:14.577Z,-3.00
2023-02-06T19:52:42.044Z,-3.00
2023-02-06T19:55:10.424Z,-3.10
2023-02-06T19:57:39.635Z,-3.20
2023-02-06T20:00:07.452Z,-3.30
2023-02-06T20:02:34.819Z,-3.20
2023-02-06T20:05:02.818Z,-3.30
2023-02-06T20:07:30.771Z,-3.30
2023-02-06T20:09:58.632Z,-3.30
2023-02-06T20:12:27.965Z,-3.30
2023-02-06T20:14:55.535Z,-3.30
2023-02-06T20:17:23.800Z,-3.40
2023-02-06T20:19:51.177Z,-3.40
2023-02-06T20:22:18.886Z,-3.50
2023-02-06T20:24:46.701Z,-3.60
2023-02-06T20:27:15.154Z,-3.60
2023-02-06T20:29:43.349Z,-3.60
2023-02-06T20:32:11.641Z,-3.60
2023-02-06T20:34:39.195Z,-3.70
2023-02-06T20:37:06.562Z,-3.70
2023-02-06T20:39:34.716Z,-3.80
2023-02-06T20:42:02.181Z,-3.70
2023-02-06T20:44:30.025Z,-3.80
2023-02-06T20:46:58.126Z,-3.80
2023-02-06T20:49:27.406Z,-3.70
2023-02-06T20:51:54.923Z,-3.70
2023-02-06T20:54:22.887Z,-3.70
2023-02-06T20:56:50.801Z,-3.80
2023-02-06T20:59:18.952Z,-3.80
2023-02-06T21:01:46.633Z,-3.80
2023-02-06T21:04:14.981Z,-3.90
2023-02-06T21:06:43.236Z,-3.90
2023-02-06T21:09:11.554Z,-4.00
2023-02-06T21:11:41.134Z,-4.00
2023-02-06T21:14:09.248Z,-4.10
2023-02-06T21:16:38.061Z,-4.20
2023-02-06T21:19:07.625Z,-4.20
2023-02-06T21:21:35.186Z,-4.20
2023-02-06T21:24:02.926Z,-4.30
2023-02-06T21:26:30.938Z,-4.30
2023-02-06T21:28:59.321Z,-4.30
2023-02-06T21:31:34.176Z,-4.30
2023-02-06T21:34:07.499Z,-4.30
2023-02-06T21:36:36.273Z,-4.40
2023-02-06T21:39:04.020Z,-4.50
2023-02-06T21:41:32.133Z,-4.50
2023-02-06T21:43:59.765Z,-4.50
2023-02-06T21:46:30.763Z,-4.60
2023-02-06T21:48:58.418Z,-4.60
2023-02-06T21:51:26.203Z,-4.60
2023-02-06T21:53:53.741Z,-4.70
2023-02-06T21:56:22.465Z,-4.70
2023-02-06T21:58:49.949Z,-4.70
2023-02-06T22:01:20.506Z,-4.70
2023-02-06T22:03:48.658Z,-4.80
2023-02-06T22:06:16.534Z,-4.80
2023-02-06T22:08:45.304Z,-4.80
2023-02-06T22:11:15.974Z,-4.90
2023-02-06T22:13:43.466Z,-4.90
2023-02-06T22:16:11.757Z,-4.90
2023-02-06T22:18:39.863Z,-4.90
2023-02-06T22:21:24.081Z,-4.90
2023-02-06T22:23:52.304Z,-4.90
2023-02-06T22:26:20.757Z,-5.00
2023-02-06T22:28:48.622Z,-5.00
2023-02-06T22:31:21.298Z,-5.00
2023-02-06T22:33:49.375Z,-5.10
2023-02-06T22:36:23.503Z,-5.10
2023-02-06T22:39:10.261Z,-5.10
2023-02-06T22:41:44.770Z,-5.20
2023-02-06T22:44:16.188Z,-5.20
2023-02-06T22:46:45.272Z,-5.20
2023-02-06T22:49:12.813Z,-5.20
2023-02-06T22:51:42.260Z,-5.20
2023-02-06T22:54:11.974Z,-5.20
2023-02-06T22:56:40.983Z,-5.20
2023-02-06T22:59:21.486Z,-5.10
2023-02-06T23:01:54.138Z,-5.10
2023-02-06T23:04:24.394Z,-5.00
2023-02-06T23:06:52.050Z,-4.90
2023-02-06T23:09:26.740Z,-4.90
2023-02-06T23:11:55.120Z,-4.80
2023-02-06T23:14:22.938Z,-4.80
2023-02-06T23:16:50.812Z,-4.80
2023-02-06T23:19:18.893Z,-4.80
2023-02-06T23:21:47.608Z,-4.70
2023-02-06T23:24:15.539Z,-4.80
2023-02-06T23:26:44.412Z,-4.80
2023-02-06T23:29:15.981Z,-4.90
2023-02-06T23:31:45.938Z,-4.90
2023-02-06T23:34:13.944Z,-5.00
2023-02-06T23:36:42.000Z,-5.10
2023-02-06T23:39:09.671Z,-5.20
2023-02-06T23:41:36.863Z,-5.20
2023-02-06T23:44:06.293Z,-5.30
2023-02-06T23:46:34.969Z,-5.30
2023-02-06T23:49:02.324Z,-5.30
2023-02-06T23:51:30.170Z,-5.40
2023-02-06T23:53:58.123Z,-5.40
2023-02-06T23:56:27.929Z,-5.50
2023-02-06T23:58:56.638Z,-5.50
